Time;durP1;ratioP1;P1;durP2;ratioP2;P2;SDS_P1;SDS_P2;PMS_P1;PMS_P2;Temp;Humidity;BMP_temperature;BMP_pressure;BME280_temperature;BME280_humidity;BME280_pressure;Samples;Min_cycle;Max_cycle;Signal;HPM_P1;HPM_P2
2021/06/03 00:08:57;;;;;;;43.05;26.40;;;8.10;99.90;;;;;;21120701;28;20040;-48
2021/06/03 00:19:07;;;;;;;50.05;30.40;;;8.00;99.90;;;;;;21071469;28;20051;-48
2021/06/03 00:29:11;;;;;;;33.38;20.58;;;8.00;99.90;;;;;;21072603;28;20044;-51
2021/06/03 00:39:14;;;;;;;30.25;21.25;;;8.10;99.90;;;;;;21085561;28;20078;-48
2021/06/03 00:49:17;;;;;;;23.80;16.15;;;8.30;99.90;;;;;;21108664;28;20035;-47
2021/06/03 00:59:20;;;;;;;25.92;15.77;;;8.40;99.90;;;;;;21168387;28;20089;-47
2021/06/03 01:09:28;;;;;;;20.73;14.93;;;8.30;99.90;;;;;;21167137;28;20040;-47
2021/06/03 01:19:32;;;;;;;;;;;8.30;99.90;;;;;;21132682;28;20051;-47
2021/06/03 01:29:58;;;;;;;29.75;18.92;;;8.20;99.90;;;;;;21147792;28;19915;-48
2021/06/03 01:40:03;;;;;;;30.35;21.15;;;8.00;99.90;;;;;;21145998;28;20048;-48
2021/06/03 01:50:08;;;;;;;20.50;14.75;;;8.00;99.90;;;;;;21146031;28;20447;-47
2021/06/03 02:00:16;;;;;;;20.83;13.15;;;7.80;99.90;;;;;;21145218;28;20035;-47
2021/06/03 02:10:27;;;;;;;33.13;21.83;;;7.80;99.90;;;;;;21097962;28;20040;-48
2021/06/03 02:20:36;;;;;;;29.05;18.08;;;7.70;99.90;;;;;;21078097;28;20036;-47
2021/06/03 02:30:38;;;;;;;22.23;15.88;;;7.60;99.90;;;;;;21058922;28;20036;-48
2021/06/03 02:40:42;;;;;;;31.45;19.13;;;7.70;99.90;;;;;;21057900;28;20055;-48
2021/06/03 02:50:45;;;;;;;35.88;23.02;;;7.70;99.90;;;;;;21129541;28;20065;-49
2021/06/03 03:00:47;;;;;;;39.40;25.38;;;7.70;99.90;;;;;;21158396;28;20044;-48
2021/06/03 03:10:54;;;;;;;26.48;18.33;;;7.70;99.90;;;;;;21139945;28;20549;-48
2021/06/03 03:21:05;;;;;;;30.48;19.90;;;7.70;99.90;;;;;;21123702;28;20546;-47
2021/06/03 03:31:07;;;;;;;29.65;19.48;;;7.70;99.90;;;;;;21138910;28;20043;-48
2021/06/03 03:41:10;;;;;;;32.53;21.70;;;7.90;99.90;;;;;;21138620;28;20047;-47
2021/06/03 03:51:14;;;;;;;22.95;15.65;;;8.10;99.90;;;;;;21097302;28;20048;-48
2021/06/03 04:01:17;;;;;;;17.88;12.63;;;8.80;99.90;;;;;;21071623;28;20039;-47
2021/06/03 04:11:24;;;;;;;7.85;5.88;;;9.40;99.90;;;;;;21083158;28;20109;-47
2021/06/03 04:21:27;;;;;;;3.67;2.20;;;10.30;99.90;;;;;;21068685;28;20489;-47
2021/06/03 04:31:29;;;;;;;8.73;6.97;;;11.30;99.90;;;;;;21086100;28;20052;-48
2021/06/03 04:41:33;;;;;;;15.80;11.48;;;12.00;99.90;;;;;;21086082;28;20094;-48
2021/06/03 04:51:38;;;;;;;14.15;10.15;;;11.70;99.90;;;;;;21145956;28;20044;-48
2021/06/03 05:01:41;;;;;;;20.20;15.40;;;11.60;99.90;;;;;;21168029;28;20035;-48
2021/06/03 05:11:44;;;;;;;24.63;16.80;;;11.20;99.90;;;;;;21167995;28;20088;-48
2021/06/03 05:21:47;;;;;;;30.83;19.73;;;11.30;99.90;;;;;;21166656;28;20048;-48
2021/06/03 05:31:54;;;;;;;23.63;16.48;;;11.20;99.90;;;;;;21165707;28;20110;-50
2021/06/03 05:42:01;;;;;;;23.50;17.50;;;11.00;99.90;;;;;;21165528;28;20061;-48
2021/06/03 05:52:05;;;;;;;24.63;17.10;;;10.90;99.90;;;;;;21146038;28;20423;-48
2021/06/03 06:02:10;;;;;;;23.17;15.88;;;11.00;99.90;;;;;;21164168;28;20048;-49
2021/06/03 06:12:13;;;;;;;14.27;11.25;;;11.20;99.90;;;;;;21083290;28;20040;-49
2021/06/03 06:22:17;;;;;;;13.00;11.10;;;15.80;99.90;;;;;;21076711;28;20036;-49
2021/06/03 06:32:19;;;;;;;12.45;10.98;;;21.00;96.30;;;;;;21076721;28;20036;-50
2021/06/03 06:42:22;;;;;;;14.30;11.13;;;22.90;88.10;;;;;;21075760;28;20070;-48
2021/06/03 06:52:25;;;;;;;11.20;9.35;;;23.70;81.50;;;;;;21140128;28;20077;-47
2021/06/03 07:02:29;;;;;;;11.50;9.82;;;24.40;78.70;;;;;;21158825;28;20549;-51
2021/06/03 07:12:36;;;;;;;10.25;8.70;;;25.40;74.20;;;;;;21157621;28;20035;-48
2021/06/03 07:22:42;;;;;;;9.70;8.70;;;26.80;69.40;;;;;;21158361;28;20039;-50
2021/06/03 07:32:46;;;;;;;9.07;8.13;;;26.80;65.90;;;;;;21157455;28;20057;-48
2021/06/03 07:42:49;;;;;;;7.47;6.78;;;26.80;64.60;;;;;;21164560;28;20023;-48
2021/06/03 07:52:51;;;;;;;9.95;9.00;;;26.70;64.60;;;;;;21155332;28;20182;-48
2021/06/03 08:02:54;;;;;;;9.73;8.82;;;26.70;64.30;;;;;;21173357;28;20032;-52
2021/06/03 08:12:59;;;;;;;8.98;8.05;;;26.20;67.10;;;;;;21172734;28;20053;-49
2021/06/03 08:23:05;;;;;;;11.20;10.20;;;26.00;69.70;;;;;;21172060;28;20031;-50
2021/06/03 08:33:11;;;;;;;9.30;8.32;;;25.90;70.30;;;;;;21171264;28;20092;-52
2021/06/03 08:43:18;;;;;;;12.30;11.00;;;25.80;74.40;;;;;;21170428;28;20031;-51
2021/06/03 08:53:21;;;;;;;12.57;11.27;;;25.90;72.00;;;;;;21168835;28;20077;-48
2021/06/03 09:03:26;;;;;;;11.02;9.98;;;25.60;74.80;;;;;;21169112;28;20039;-47
2021/06/03 09:13:35;;;;;;;12.65;9.15;;;26.20;74.80;;;;;;21167464;28;20494;-47
2021/06/03 09:23:47;;;;;;;11.98;10.75;;;26.10;77.20;;;;;;21166765;28;20405;-47
2021/06/03 09:33:51;;;;;;;12.73;11.45;;;26.20;73.50;;;;;;21165939;28;20570;-47
2021/06/03 09:44:09;;;;;;;11.23;9.77;;;25.10;79.10;;;;;;21164854;28;20036;-47
2021/06/03 09:54:14;;;;;;;11.50;10.07;;;25.70;78.40;;;;;;21075127;28;20060;-52
2021/06/03 10:04:38;;;;;;;14.70;13.10;;;26.70;74.90;;;;;;21078299;28;20439;-48
2021/06/03 10:14:41;;;;;;;16.02;14.30;;;27.20;76.20;;;;;;21078620;28;20378;-47
2021/06/03 10:24:57;;;;;;;16.50;14.43;;;27.70;74.20;;;;;;21078919;28;20036;-48
2021/06/03 10:35:01;;;;;;;19.00;13.95;;;27.40;77.70;;;;;;21058683;28;20044;-47
2021/06/03 10:45:06;;;;;;;15.38;13.75;;;26.40;78.80;;;;;;21072592;28;20096;-47
2021/06/03 10:55:16;;;;;;;16.27;14.50;;;26.30;77.50;;;;;;21159831;28;20092;-47
2021/06/03 11:05:36;;;;;;;14.48;11.85;;;27.00;74.40;;;;;;21158907;28;20071;-47
2021/06/03 11:16:08;;;;;;;13.93;11.52;;;26.70;78.40;;;;;;21158427;28;20031;-47
2021/06/03 11:26:39;;;;;;;13.02;11.57;;;26.80;75.20;;;;;;21157705;28;20043;-47
2021/06/03 11:36:45;;;;;;;13.88;12.27;;;26.40;76.40;;;;;;21157475;28;20031;-47
2021/06/03 11:46:54;;;;;;;16.87;14.43;;;26.00;77.60;;;;;;21151768;28;20109;-48
2021/06/03 11:57:19;;;;;;;20.17;15.70;;;25.90;76.30;;;;;;21072120;28;20040;-49
2021/06/03 12:07:45;;;;;;;24.42;19.02;;;25.40;77.00;;;;;;21068223;28;20117;-47
2021/06/03 12:17:58;;;;;;;19.08;15.93;;;26.50;74.40;;;;;;21067978;28;20074;-47
2021/06/03 12:28:03;;;;;;;16.05;14.35;;;27.30;72.20;;;;;;21075183;28;20043;-47
2021/06/03 12:38:11;;;;;;;17.15;14.65;;;26.40;71.90;;;;;;21083516;28;20043;-46
2021/06/03 12:48:16;;;;;;;17.98;15.30;;;25.90;73.80;;;;;;21115263;28;20114;-47
2021/06/03 12:58:23;;;;;;;19.00;15.80;;;25.40;71.60;;;;;;21170642;28;20036;-48
2021/06/03 13:08:44;;;;;;;14.20;12.77;;;24.80;73.70;;;;;;21168041;28;20493;-47
2021/06/03 13:18:50;;;;;;;16.65;14.65;;;24.20;75.50;;;;;;21167658;28;20534;-46
2021/06/03 13:29:01;;;;;;;14.93;13.40;;;23.60;78.20;;;;;;21164260;28;20043;-47
2021/06/03 13:39:03;;;;;;;14.17;12.00;;;24.90;75.10;;;;;;21162676;28;20048;-47
2021/06/03 13:49:08;;;;;;;10.57;9.50;;;26.20;72.30;;;;;;21138952;28;20547;-47
2021/06/03 13:59:11;;;;;;;17.27;13.57;;;26.10;73.50;;;;;;21079804;28;20097;-46
2021/06/03 14:09:43;;;;;;;13.85;12.45;;;27.30;68.00;;;;;;21078403;28;20085;-47
2021/06/03 14:19:48;;;;;;;12.95;11.60;;;27.80;64.70;;;;;;21075781;28;20032;-47
2021/06/03 14:30:24;;;;;;;11.35;10.00;;;28.30;64.70;;;;;;21058654;28;20052;-46
2021/06/03 14:40:41;;;;;;;13.25;11.88;;;28.40;64.10;;;;;;21062174;28;20047;-46
2021/06/03 14:50:47;;;;;;;13.40;12.02;;;28.80;62.50;;;;;;21105623;28;20043;-47
2021/06/03 15:00:57;;;;;;;13.43;12.00;;;28.80;62.00;;;;;;21158654;28;20044;-53
2021/06/03 15:11:04;;;;;;;16.45;14.82;;;29.10;62.30;;;;;;21157738;28;20036;-46
2021/06/03 15:21:07;;;;;;;12.90;11.50;;;29.40;61.60;;;;;;21157579;28;20084;-46
2021/06/03 15:31:23;;;;;;;15.10;12.45;;;29.00;59.50;;;;;;21156045;28;20276;-47
2021/06/03 15:41:30;;;;;;;10.93;9.93;;;28.70;59.00;;;;;;21156371;28;20119;-46
2021/06/03 15:51:36;;;;;;;14.30;11.50;;;28.60;58.20;;;;;;21111618;28;20090;-46
2021/06/03 16:01:39;;;;;;;15.30;13.68;;;28.10;57.20;;;;;;21058710;28;20402;-46
2021/06/03 16:11:43;;;;;;;19.73;16.52;;;26.60;61.20;;;;;;21088752;28;20093;-46
2021/06/03 16:21:47;;;;;;;18.05;13.93;;;23.50;68.60;;;;;;21069307;28;20052;-46
2021/06/03 16:32:01;;;;;;;17.58;14.15;;;21.60;71.10;;;;;;21086849;28;20448;-45
2021/06/03 16:42:04;;;;;;;22.20;16.38;;;20.10;77.50;;;;;;21068259;28;20386;-44
2021/06/03 16:52:08;;;;;;;20.08;15.57;;;19.00;81.30;;;;;;21112396;28;20488;-44
2021/06/03 17:02:10;;;;;;;21.55;16.25;;;18.10;85.10;;;;;;21168491;28;20444;-47
2021/06/03 17:12:12;;;;;;;20.05;15.73;;;17.50;89.60;;;;;;21149589;28;20048;-47
2021/06/03 17:22:14;;;;;;;20.27;16.23;;;16.90;92.20;;;;;;21167299;28;20047;-47
2021/06/03 17:32:18;;;;;;;21.50;16.70;;;16.30;93.90;;;;;;21166057;28;20040;-46
2021/06/03 17:42:20;;;;;;;21.88;16.48;;;16.00;95.40;;;;;;21165540;28;20069;-46
2021/06/03 17:52:25;;;;;;;23.38;17.83;;;15.80;97.10;;;;;;21094687;28;20032;-47
2021/06/03 18:02:28;;;;;;;24.27;17.27;;;15.70;98.60;;;;;;21079922;28;20044;-46
2021/06/03 18:12:49;;;;;;;24.15;16.75;;;15.60;99.90;;;;;;21107373;28;20389;-47
2021/06/03 18:22:51;;;;;;;27.13;18.45;;;15.20;99.90;;;;;;21076684;28;20048;-47
2021/06/03 18:32:56;;;;;;;31.67;17.35;;;14.90;99.90;;;;;;21058884;28;20048;-46
2021/06/03 18:42:59;;;;;;;25.55;16.92;;;14.20;99.90;;;;;;21058038;28;20389;-47
2021/06/03 18:53:01;;;;;;;25.92;17.45;;;13.60;99.90;;;;;;21143996;28;20081;-46
2021/06/03 19:03:05;;;;;;;22.98;16.83;;;13.10;99.90;;;;;;21160176;28;20412;-48
2021/06/03 19:13:09;;;;;;;22.33;16.55;;;12.80;99.90;;;;;;21158329;28;20054;-46
2021/06/03 19:23:12;;;;;;;19.88;14.25;;;12.60;99.90;;;;;;21157451;28;20051;-47
2021/06/03 19:33:14;;;;;;;20.58;14.88;;;12.60;99.90;;;;;;21157043;27;20051;-47
2021/06/03 19:43:20;;;;;;;20.92;14.27;;;12.50;99.90;;;;;;21157644;28;20036;-46
2021/06/03 19:53:23;;;;;;;20.90;15.00;;;12.10;99.90;;;;;;21095882;28;20405;-46
2021/06/03 20:03:25;;;;;;;20.73;13.30;;;11.80;99.90;;;;;;21071755;28;20098;-49
2021/06/03 20:13:28;;;;;;;18.08;13.30;;;11.60;99.90;;;;;;21071306;28;20431;-46
2021/06/03 20:23:31;;;;;;;24.88;15.07;;;11.50;99.90;;;;;;21071175;28;20036;-46
2021/06/03 20:33:36;;;;;;;22.05;14.88;;;11.40;99.90;;;;;;21072527;28;20052;-48
2021/06/03 20:43:39;;;;;;;22.38;15.75;;;11.10;99.90;;;;;;21070012;28;20048;-47
2021/06/03 20:53:41;;;;;;;21.10;14.98;;;11.20;99.90;;;;;;21156876;28;20483;-46
2021/06/03 21:03:43;;;;;;;20.15;14.73;;;11.50;99.90;;;;;;21168615;28;20378;-47
2021/06/03 21:13:48;;;;;;;24.67;16.38;;;11.40;99.90;;;;;;21149993;28;20550;-47
2021/06/03 21:23:51;;;;;;;23.63;16.42;;;11.30;99.90;;;;;;21168016;28;20062;-46
2021/06/03 21:33:56;;;;;;;24.83;17.77;;;11.30;99.90;;;;;;21148522;28;20028;-46
2021/06/03 21:43:58;;;;;;;21.77;16.02;;;11.30;99.90;;;;;;21166848;28;20051;-46
2021/06/03 21:54:01;;;;;;;24.48;17.05;;;11.20;99.90;;;;;;21062058;28;20036;-47
2021/06/03 22:04:12;;;;;;;20.17;12.73;;;11.20;99.90;;;;;;21060770;28;20425;-47
2021/06/03 22:14:15;;;;;;;23.33;16.60;;;11.10;99.90;;;;;;21060639;28;20040;-46
2021/06/03 22:24:21;;;;;;;22.52;16.08;;;11.00;99.90;;;;;;21060791;28;20048;-46
2021/06/03 22:34:23;;;;;;;23.02;16.48;;;10.80;99.90;;;;;;21076917;28;20048;-46
2021/06/03 22:44:25;;;;;;;22.38;15.68;;;10.70;99.90;;;;;;21068973;28;20044;-46
2021/06/03 22:54:28;;;;;;;23.05;16.48;;;10.50;99.90;;;;;;21155957;28;20425;-48
2021/06/03 23:04:31;;;;;;;20.08;14.32;;;10.60;99.90;;;;;;21140695;28;20092;-46
2021/06/03 23:14:35;;;;;;;20.08;13.88;;;10.60;99.90;;;;;;21157898;28;20039;-47
2021/06/03 23:24:36;;;;;;;21.58;15.02;;;10.70;99.90;;;;;;21157563;28;20035;-46
2021/06/03 23:34:38;;;;;;;18.58;13.18;;;10.60;99.90;;;;;;21158490;28;20100;-46
2021/06/03 23:44:41;;;;;;;19.35;12.32;;;10.60;99.90;;;;;;21156889;28;20069;-46
2021/06/03 23:54:43;;;;;;;17.45;10.10;;;10.40;99.90;;;;;;21084725;28;20436;-46
